Rouvroy, Belgium
Current Conditions -  °F | °C
As of 11:20 PM on Tuesday 21 Oct 2014 (Local Time) from ELLX Reporting Station
Few Clouds Few Clouds  
Wind Chill: 36°   Ceiling: Unl
Heat Index: 43°   Visibility: 6mi
Dew Point: 39°   Wind: 13mph
Humidity: 87%   Direction: 270°W
Pressure: 29.91"   Gusts: NA
Location:  49.54°N, 5.49°E
Report Text: ELLX 212120Z 27011KT 9999 FEW020 06/04 Q1013 NOSIG
Loading
Personal Weather Stations






























Interactive Weather Map
Tropical Storm Tracking
New forecast layout! Learn more

10-Day Weather Forecast

Advertisements
Track Severe Weather on mobile